Time;durP1;ratioP1;P1;durP2;ratioP2;P2;SDS_P1;SDS_P2;PMS_P1;PMS_P2;Temp;Humidity;BMP_temperature;BMP_pressure;BME280_temperature;BME280_humidity;BME280_pressure;Samples;Min_cycle;Max_cycle;Signal;HPM_P1;HPM_P2
2021/09/02 00:01:05;;;;;;;14.45;12.00;;;17.50;95.30;;;;;;5052715;28;20025;-74
2021/09/02 00:03:31;;;;;;;15.10;11.20;;;17.50;95.00;;;;;;5053627;28;20426;-74
2021/09/02 00:05:56;;;;;;;15.32;11.27;;;17.60;94.70;;;;;;5035458;28;20518;-73
2021/09/02 00:08:22;;;;;;;12.48;10.10;;;17.70;94.60;;;;;;5033138;28;20026;-74
2021/09/02 00:10:47;;;;;;;14.73;10.63;;;17.70;94.40;;;;;;5033620;28;20021;-73
2021/09/02 00:13:13;;;;;;;14.23;10.57;;;17.80;94.30;;;;;;5032663;28;20022;-73
2021/09/02 00:15:39;;;;;;;13.48;9.85;;;17.80;94.20;;;;;;5033849;28;20022;-73
2021/09/02 00:18:05;;;;;;;15.18;10.10;;;17.90;94.00;;;;;;5034139;28;20400;-73
2021/09/02 00:20:30;;;;;;;12.10;10.10;;;17.90;93.60;;;;;;5034056;28;20033;-73
2021/09/02 00:22:56;;;;;;;12.57;9.60;;;17.90;93.40;;;;;;5032905;28;20124;-73
2021/09/02 00:25:22;;;;;;;12.77;9.80;;;18.00;93.30;;;;;;5032375;28;20025;-73
2021/09/02 00:27:48;;;;;;;10.32;9.05;;;18.00;93.20;;;;;;5032791;28;20030;-73
2021/09/02 00:30:14;;;;;;;11.52;8.77;;;18.00;93.00;;;;;;5032127;28;20025;-73
2021/09/02 00:32:40;;;;;;;11.05;9.18;;;18.00;92.90;;;;;;5033665;28;20124;-73
2021/09/02 00:35:06;;;;;;;11.15;9.32;;;18.00;92.80;;;;;;5033316;28;20104;-73
2021/09/02 00:37:32;;;;;;;11.93;8.93;;;18.10;92.80;;;;;;5032279;28;20602;-73
2021/09/02 00:39:58;;;;;;;12.35;8.88;;;18.10;92.90;;;;;;5033394;28;20113;-73
2021/09/02 00:42:24;;;;;;;10.38;9.25;;;18.10;92.90;;;;;;5033455;28;20381;-73
2021/09/02 00:44:49;;;;;;;11.80;9.40;;;18.10;92.80;;;;;;5032283;28;20463;-73
2021/09/02 00:47:16;;;;;;;14.55;9.68;;;18.10;92.70;;;;;;5033572;28;20033;-73
2021/09/02 00:49:43;;;;;;;13.63;10.65;;;18.10;92.80;;;;;;5032617;28;20128;-73
2021/09/02 00:52:17;;;;;;;12.00;9.40;;;18.00;92.80;;;;;;5033182;28;20034;-73
2021/09/02 00:54:48;;;;;;;11.50;8.93;;;18.00;92.90;;;;;;5032277;28;20427;-73
2021/09/02 00:57:18;;;;;;;10.98;9.48;;;18.00;93.10;;;;;;5033535;28;20475;-73
2021/09/02 00:59:48;;;;;;;11.88;9.98;;;18.00;93.00;;;;;;5033176;28;20033;-73
2021/09/02 01:02:15;;;;;;;11.38;9.73;;;17.90;93.20;;;;;;5033656;28;20037;-74
2021/09/02 01:04:40;;;;;;;11.00;9.10;;;17.90;93.30;;;;;;5033829;28;20054;-72
2021/09/02 01:07:07;;;;;;;11.23;9.20;;;18.00;93.30;;;;;;5035540;28;20033;-71
2021/09/02 01:09:33;;;;;;;10.95;8.80;;;17.90;93.20;;;;;;5037586;28;20029;-71
2021/09/02 01:11:59;;;;;;;12.68;9.00;;;18.00;93.20;;;;;;5035533;28;20045;-71
2021/09/02 01:14:24;;;;;;;12.80;9.15;;;17.90;93.10;;;;;;5036213;28;20025;-71
2021/09/02 01:16:51;;;;;;;11.00;8.73;;;17.90;93.10;;;;;;5037193;28;20475;-71
2021/09/02 01:19:18;;;;;;;10.02;8.40;;;17.90;93.00;;;;;;5035744;28;20029;-71
2021/09/02 01:21:45;;;;;;;10.27;9.05;;;17.90;92.90;;;;;;5035776;28;20025;-71
2021/09/02 01:24:12;;;;;;;10.15;8.40;;;17.90;92.90;;;;;;5036975;28;20026;-71
2021/09/02 01:26:38;;;;;;;10.18;8.45;;;17.90;92.80;;;;;;5035377;28;20029;-71
2021/09/02 01:29:07;;;;;;;12.35;8.00;;;17.90;92.60;;;;;;5036885;28;20348;-71
2021/09/02 01:31:32;;;;;;;11.18;8.70;;;17.80;92.60;;;;;;5036800;28;20040;-71
2021/09/02 01:33:58;;;;;;;13.27;8.40;;;17.80;92.60;;;;;;5045433;28;20394;-71
2021/09/02 01:36:24;;;;;;;11.15;8.10;;;17.80;92.60;;;;;;5056752;28;20036;-71
2021/09/02 01:38:49;;;;;;;9.45;7.78;;;17.90;92.70;;;;;;5056940;28;20025;-71
2021/09/02 01:41:15;;;;;;;9.23;7.15;;;17.90;92.60;;;;;;5056275;28;20040;-71
2021/09/02 01:43:41;;;;;;;8.95;7.85;;;17.90;92.60;;;;;;5056312;28;20025;-75
2021/09/02 01:46:06;;;;;;;8.88;7.45;;;17.90;92.60;;;;;;5056789;28;20025;-78
2021/09/02 01:48:34;;;;;;;8.32;7.43;;;17.90;92.60;;;;;;5056697;28;20500;-78
2021/09/02 01:51:00;;;;;;;8.40;7.05;;;17.90;92.70;;;;;;5055168;28;20025;-73
2021/09/02 01:53:26;;;;;;;8.05;6.63;;;17.90;92.50;;;;;;5055149;28;20086;-73
2021/09/02 01:55:52;;;;;;;9.13;6.72;;;17.90;92.40;;;;;;5054778;28;20032;-73
2021/09/02 01:58:18;;;;;;;9.52;7.28;;;17.90;92.20;;;;;;5055465;28;20029;-73
2021/09/02 02:00:44;;;;;;;9.02;6.68;;;17.90;92.20;;;;;;5054996;28;20071;-72
2021/09/02 02:03:10;;;;;;;7.00;6.03;;;17.90;92.10;;;;;;5055316;28;20024;-74
2021/09/02 02:05:36;;;;;;;6.72;5.70;;;17.90;92.00;;;;;;5035860;28;20081;-72
2021/09/02 02:08:03;;;;;;;7.32;5.13;;;17.80;91.80;;;;;;5036251;28;20036;-72
2021/09/02 02:10:31;;;;;;;4.95;4.10;;;17.80;91.60;;;;;;5034730;28;20025;-73
2021/09/02 02:13:00;;;;;;;5.82;3.63;;;17.80;91.40;;;;;;5035125;28;20034;-72
2021/09/02 02:15:26;;;;;;;5.43;4.05;;;17.80;91.30;;;;;;5034472;28;20079;-72
2021/09/02 02:17:53;;;;;;;5.32;3.70;;;17.80;91.10;;;;;;5035230;28;20025;-74
2021/09/02 02:20:18;;;;;;;5.35;3.85;;;17.80;91.00;;;;;;5034310;28;20026;-72
2021/09/02 02:22:45;;;;;;;5.65;3.65;;;17.80;90.90;;;;;;5034377;28;20030;-73
2021/09/02 02:25:12;;;;;;;5.97;3.85;;;17.80;90.80;;;;;;5034594;28;20021;-71
2021/09/02 02:27:39;;;;;;;7.47;4.25;;;17.80;91.10;;;;;;5034478;28;20168;-73
2021/09/02 02:30:06;;;;;;;7.40;4.80;;;17.80;91.30;;;;;;5039117;28;20030;-72
2021/09/02 02:32:32;;;;;;;5.82;4.50;;;17.70;91.60;;;;;;5041864;28;20041;-75
2021/09/02 02:34:58;;;;;;;6.07;4.40;;;17.60;92.00;;;;;;5041785;28;20404;-74
2021/09/02 02:37:24;;;;;;;7.63;4.40;;;17.60;92.30;;;;;;5052668;28;20032;-71
2021/09/02 02:39:49;;;;;;;6.75;4.60;;;17.50;92.70;;;;;;5050725;28;20102;-72
2021/09/02 02:42:15;;;;;;;6.85;4.68;;;17.50;93.20;;;;;;5053369;28;20037;-72
2021/09/02 02:44:41;;;;;;;5.75;4.45;;;17.40;93.40;;;;;;5054536;28;20463;-71
2021/09/02 02:47:07;;;;;;;9.75;5.35;;;17.40;93.80;;;;;;5044011;28;20025;-71
2021/09/02 02:49:33;;;;;;;8.15;5.43;;;17.40;94.10;;;;;;5036982;28;20036;-72
2021/09/02 02:51:59;;;;;;;7.95;5.80;;;17.30;94.40;;;;;;5046542;28;20042;-71
2021/09/02 02:54:25;;;;;;;8.10;5.25;;;17.30;94.80;;;;;;5036889;28;20034;-72
2021/09/02 02:56:50;;;;;;;8.20;5.93;;;17.20;95.10;;;;;;5033801;28;20029;-71
2021/09/02 02:59:17;;;;;;;7.63;5.45;;;17.20;95.30;;;;;;5036193;28;20057;-72
2021/09/02 03:01:43;;;;;;;7.22;5.35;;;17.20;95.50;;;;;;5039572;28;20033;-72
2021/09/02 03:04:09;;;;;;;7.63;5.80;;;17.20;95.60;;;;;;5039979;28;20058;-72
2021/09/02 03:06:35;;;;;;;6.80;5.13;;;17.20;95.60;;;;;;5038159;28;20403;-72
2021/09/02 03:09:02;;;;;;;6.20;4.75;;;17.20;95.80;;;;;;5048413;28;20104;-72
2021/09/02 03:11:31;;;;;;;8.05;5.45;;;17.20;95.90;;;;;;5047076;28;20065;-71
2021/09/02 03:13:57;;;;;;;7.32;5.05;;;17.20;95.80;;;;;;5033501;28;20057;-72
2021/09/02 03:16:23;;;;;;;8.13;5.57;;;17.20;95.90;;;;;;5034669;28;20492;-72
2021/09/02 03:18:48;;;;;;;6.55;5.05;;;17.20;95.80;;;;;;5035948;28;20079;-72
2021/09/02 03:21:14;;;;;;;5.95;4.78;;;17.20;96.10;;;;;;5035992;28;20283;-72
2021/09/02 03:23:40;;;;;;;5.57;4.75;;;17.20;96.00;;;;;;5048561;28;20028;-72
2021/09/02 03:26:06;;;;;;;5.80;4.50;;;17.20;96.20;;;;;;5032743;28;20029;-74
2021/09/02 03:28:31;;;;;;;6.68;4.90;;;17.20;96.20;;;;;;5037793;28;20376;-75
2021/09/02 03:30:57;;;;;;;5.68;4.47;;;17.20;96.10;;;;;;5032989;28;20108;-73
2021/09/02 03:33:23;;;;;;;8.75;5.50;;;17.20;95.90;;;;;;5048502;28;20029;-73
2021/09/02 03:35:48;;;;;;;6.07;5.03;;;17.20;95.80;;;;;;5039679;28;20481;-73
2021/09/02 03:38:14;;;;;;;5.60;4.53;;;17.20;95.90;;;;;;5043889;28;20406;-73
2021/09/02 03:40:40;;;;;;;6.53;4.80;;;17.20;96.10;;;;;;5053110;28;20021;-72
2021/09/02 03:43:05;;;;;;;6.38;5.18;;;17.20;96.10;;;;;;5036537;28;20383;-72
2021/09/02 03:45:31;;;;;;;5.78;4.68;;;17.20;96.20;;;;;;5032853;28;20028;-72
2021/09/02 03:47:58;;;;;;;7.80;5.32;;;17.20;96.20;;;;;;5034102;28;20033;-72
2021/09/02 03:50:23;;;;;;;7.20;5.38;;;17.20;96.10;;;;;;5032843;28;20060;-73
2021/09/02 03:52:49;;;;;;;5.88;4.68;;;17.30;96.30;;;;;;5033844;28;20033;-72
2021/09/02 03:55:15;;;;;;;5.70;4.43;;;17.20;96.00;;;;;;5044130;28;20437;-72
2021/09/02 03:57:41;;;;;;;5.82;4.57;;;17.30;95.70;;;;;;5052730;28;20032;-72
2021/09/02 04:00:10;;;;;;;6.97;4.72;;;17.30;95.30;;;;;;5043458;28;20021;-73
2021/09/02 04:02:37;;;;;;;6.00;4.53;;;17.30;94.90;;;;;;5042695;28;20044;-72
2021/09/02 04:05:04;;;;;;;8.23;4.65;;;17.30;95.10;;;;;;5046864;28;20059;-72
2021/09/02 04:07:29;;;;;;;7.90;5.15;;;17.30;95.00;;;;;;5043726;28;20143;-73
2021/09/02 04:09:55;;;;;;;6.00;4.28;;;17.20;94.40;;;;;;5036168;28;20033;-73
2021/09/02 04:12:21;;;;;;;5.45;4.07;;;17.20;94.60;;;;;;5043784;28;20041;-73
2021/09/02 04:14:46;;;;;;;6.95;4.20;;;17.20;94.70;;;;;;5035740;28;20438;-73
2021/09/02 04:17:12;;;;;;;6.05;4.28;;;17.20;94.40;;;;;;5033398;28;20036;-74
2021/09/02 04:19:38;;;;;;;7.50;4.57;;;17.20;94.30;;;;;;5047679;28;20502;-73
2021/09/02 04:22:04;;;;;;;12.93;5.00;;;17.20;93.90;;;;;;5050961;28;20056;-73
2021/09/02 04:24:29;;;;;;;8.00;5.28;;;17.20;93.40;;;;;;5041650;28;20032;-73
2021/09/02 04:26:56;;;;;;;7.53;4.72;;;17.10;92.20;;;;;;5051339;28;20510;-73
2021/09/02 04:29:22;;;;;;;7.35;5.03;;;17.10;92.00;;;;;;5050135;28;20039;-74
2021/09/02 04:31:48;;;;;;;7.43;5.00;;;17.00;92.00;;;;;;5055997;28;20128;-73
2021/09/02 04:34:14;;;;;;;8.68;4.15;;;17.00;91.80;;;;;;5066816;28;20470;-80
2021/09/02 04:36:40;;;;;;;6.15;3.80;;;16.90;91.50;;;;;;5052180;28;20095;-78
2021/09/02 04:39:06;;;;;;;7.22;3.92;;;17.00;91.30;;;;;;5033148;28;20472;-75
2021/09/02 04:41:32;;;;;;;7.95;4.03;;;17.00;91.20;;;;;;5033307;28;20034;-75
2021/09/02 04:43:58;;;;;;;6.78;4.43;;;17.00;90.80;;;;;;5037624;28;20033;-74
2021/09/02 04:46:24;;;;;;;9.13;4.93;;;17.00;90.40;;;;;;5038424;28;20032;-71
2021/09/02 04:48:49;;;;;;;9.70;5.00;;;17.00;90.10;;;;;;5035935;28;20410;-78
2021/09/02 04:51:16;;;;;;;7.97;5.40;;;17.10;89.40;;;;;;5037549;28;20416;-69
2021/09/02 04:53:43;;;;;;;8.52;5.22;;;17.00;89.30;;;;;;5046225;28;20033;-72
2021/09/02 04:56:12;;;;;;;7.05;4.78;;;17.00;89.90;;;;;;5056948;28;20063;-76
2021/09/02 04:58:39;;;;;;;9.60;5.13;;;17.00;89.30;;;;;;5057038;28;20082;-73
2021/09/02 05:01:05;;;;;;;9.50;5.13;;;17.00;88.80;;;;;;5043270;28;20053;-72
2021/09/02 05:03:31;;;;;;;7.63;5.18;;;17.00;88.60;;;;;;5038889;28;20076;-69
2021/09/02 05:05:57;;;;;;;8.18;5.57;;;17.00;88.30;;;;;;5036188;28;20060;-72
2021/09/02 05:08:23;;;;;;;8.23;5.55;;;17.00;88.10;;;;;;5037340;28;20030;-72
2021/09/02 05:10:49;;;;;;;8.23;5.55;;;17.00;88.40;;;;;;5038112;28;20474;-72
2021/09/02 05:13:15;;;;;;;8.85;5.63;;;17.00;88.40;;;;;;5055477;28;20041;-68
2021/09/02 05:15:40;;;;;;;10.23;5.68;;;17.10;88.40;;;;;;5060408;28;20035;-79
2021/09/02 05:18:06;;;;;;;11.43;5.70;;;17.10;87.60;;;;;;5055690;28;20029;-80
2021/09/02 05:20:32;;;;;;;9.88;5.57;;;17.10;86.80;;;;;;5052744;28;20032;-72
2021/09/02 05:22:58;;;;;;;9.52;5.70;;;17.20;86.50;;;;;;5052718;28;20128;-76
2021/09/02 05:25:24;;;;;;;8.60;5.03;;;17.20;86.60;;;;;;5056533;28;20111;-75
2021/09/02 05:27:50;;;;;;;11.95;6.10;;;17.20;84.60;;;;;;5041814;28;20120;-75
2021/09/02 05:30:16;;;;;;;10.55;5.72;;;17.20;84.10;;;;;;5036075;28;20029;-75
2021/09/02 05:32:42;;;;;;;11.20;5.55;;;17.20;83.90;;;;;;5035856;28;20037;-75
2021/09/02 05:35:09;;;;;;;9.10;5.63;;;17.20;83.90;;;;;;5037194;28;20112;-75
2021/09/02 05:37:35;;;;;;;8.98;5.93;;;17.20;84.00;;;;;;5035754;28;20384;-75
2021/09/02 05:40:01;;;;;;;10.60;5.63;;;17.20;84.00;;;;;;5036865;28;20036;-75
2021/09/02 05:42:27;;;;;;;8.73;5.45;;;17.20;84.20;;;;;;5041949;28;20523;-75
2021/09/02 05:44:53;;;;;;;8.55;5.60;;;17.20;83.80;;;;;;5037880;28;20117;-76
2021/09/02 05:47:19;;;;;;;9.60;6.00;;;17.30;84.00;;;;;;5045249;28;20021;-76
2021/09/02 05:49:45;;;;;;;9.20;5.85;;;17.30;84.00;;;;;;5042686;28;20433;-75
2021/09/02 05:52:10;;;;;;;7.93;5.55;;;17.40;83.90;;;;;;5038049;28;20046;-76
2021/09/02 05:54:36;;;;;;;9.43;5.18;;;17.60;83.10;;;;;;5047624;28;20033;-76
2021/09/02 05:57:02;;;;;;;7.97;5.60;;;17.70;82.40;;;;;;5040208;28;20017;-75
2021/09/02 05:59:28;;;;;;;11.77;5.78;;;17.80;81.70;;;;;;5037903;28;20034;-79
2021/09/02 06:01:53;;;;;;;9.85;5.75;;;17.80;80.80;;;;;;5054977;28;20040;-78
2021/09/02 06:04:19;;;;;;;10.60;6.10;;;17.80;80.30;;;;;;5056157;28;20384;-76
2021/09/02 06:06:45;;;;;;;9.40;6.35;;;17.90;79.80;;;;;;5054925;28;20128;-80
2021/09/02 06:09:11;;;;;;;9.18;5.63;;;18.00;80.00;;;;;;5054946;28;20075;-75
2021/09/02 06:11:36;;;;;;;7.30;5.35;;;18.30;79.50;;;;;;5070937;28;20056;-78
2021/09/02 06:14:03;;;;;;;9.75;6.55;;;19.10;78.70;;;;;;5054383;28;20028;-71
2021/09/02 06:16:28;;;;;;;8.65;5.53;;;20.10;77.30;;;;;;5040837;28;20399;-73
2021/09/02 06:18:54;;;;;;;7.53;5.18;;;21.10;73.80;;;;;;5035011;28;20025;-72
2021/09/02 06:21:20;;;;;;;7.90;5.18;;;21.80;71.10;;;;;;5044148;28;20035;-79
2021/09/02 06:23:45;;;;;;;7.90;5.13;;;22.70;68.60;;;;;;5048417;28;20032;-79
2021/09/02 06:26:11;;;;;;;9.57;4.93;;;23.40;66.40;;;;;;5050121;28;20079;-74
2021/09/02 06:28:37;;;;;;;7.53;4.68;;;24.30;64.20;;;;;;5044038;28;20033;-73
2021/09/02 06:31:03;;;;;;;6.85;4.72;;;24.90;61.70;;;;;;5034454;28;20084;-75
2021/09/02 06:33:29;;;;;;;7.88;4.82;;;25.40;60.10;;;;;;5033279;28;20029;-73
2021/09/02 06:35:55;;;;;;;6.68;4.85;;;25.90;58.40;;;;;;5042505;28;20032;-75
2021/09/02 06:38:21;;;;;;;8.35;4.28;;;26.50;57.80;;;;;;5045709;28;20028;-75
2021/09/02 06:40:46;;;;;;;10.13;5.38;;;26.90;56.50;;;;;;5043527;28;20021;-75
2021/09/02 06:43:12;;;;;;;7.68;4.75;;;27.30;55.50;;;;;;5044395;28;20025;-74
2021/09/02 06:45:38;;;;;;;10.73;5.30;;;27.60;55.00;;;;;;5046955;28;20029;-71
2021/09/02 06:48:04;;;;;;;8.40;4.90;;;27.90;54.20;;;;;;5044416;28;20368;-71
2021/09/02 06:50:30;;;;;;;8.48;4.60;;;28.20;53.30;;;;;;5044389;28;20482;-71
2021/09/02 06:52:55;;;;;;;6.78;4.88;;;28.40;53.20;;;;;;5044272;28;20116;-72
2021/09/02 06:55:21;;;;;;;7.50;5.25;;;28.50;51.80;;;;;;5045381;28;20083;-72
2021/09/02 06:57:47;;;;;;;6.13;4.25;;;28.50;51.30;;;;;;5038664;28;20088;-73
2021/09/02 07:00:13;;;;;;;7.82;4.95;;;28.60;51.90;;;;;;5033980;28;20025;-72
2021/09/02 07:02:39;;;;;;;7.60;4.88;;;28.80;50.90;;;;;;5034821;28;20071;-71
2021/09/02 07:05:06;;;;;;;8.85;4.68;;;28.20;50.30;;;;;;5034574;28;20132;-71
2021/09/02 07:07:32;;;;;;;6.53;4.22;;;27.80;51.10;;;;;;5034983;28;20041;-71
2021/09/02 07:09:57;;;;;;;8.20;4.97;;;28.00;51.20;;;;;;5042629;28;20029;-72
2021/09/02 07:12:23;;;;;;;6.05;4.88;;;27.60;51.30;;;;;;5043420;28;20383;-72
2021/09/02 07:14:49;;;;;;;10.25;4.70;;;27.20;51.30;;;;;;5043779;28;20104;-72
2021/09/02 07:17:15;;;;;;;6.28;4.45;;;26.90;51.90;;;;;;5044966;28;20041;-75
2021/09/02 07:19:41;;;;;;;10.95;4.85;;;26.70;53.20;;;;;;5043159;28;20463;-72
2021/09/02 07:22:07;;;;;;;8.35;5.13;;;26.40;53.50;;;;;;5044000;28;20083;-73
2021/09/02 07:24:32;;;;;;;7.40;4.90;;;25.90;53.70;;;;;;5046335;28;20027;-72
2021/09/02 07:26:58;;;;;;;10.65;5.13;;;25.20;54.80;;;;;;5051050;28;20459;-68
2021/09/02 07:29:24;;;;;;;12.50;5.88;;;24.50;55.90;;;;;;5032817;28;20456;-75
2021/09/02 07:31:50;;;;;;;8.05;5.35;;;23.90;57.60;;;;;;5033028;28;20041;-75
2021/09/02 07:34:15;;;;;;;8.90;5.07;;;23.40;58.60;;;;;;5033163;28;20026;-75
2021/09/02 07:36:42;;;;;;;7.88;5.18;;;23.00;59.60;;;;;;5032277;28;20048;-77
2021/09/02 07:39:08;;;;;;;8.10;4.85;;;22.80;60.70;;;;;;5032155;28;20033;-74
2021/09/02 07:41:34;;;;;;;8.07;5.15;;;22.80;61.40;;;;;;5033008;28;20033;-75
2021/09/02 07:44:00;;;;;;;6.88;4.57;;;23.00;61.40;;;;;;5034766;28;20376;-75
2021/09/02 07:46:26;;;;;;;8.50;4.82;;;22.70;60.50;;;;;;5034489;28;20040;-75
2021/09/02 07:48:52;;;;;;;5.97;4.63;;;22.40;60.70;;;;;;5034357;28;20033;-74
2021/09/02 07:51:19;;;;;;;6.55;4.70;;;21.90;61.10;;;;;;5034119;28;20419;-74
2021/09/02 07:53:45;;;;;;;7.13;5.00;;;21.50;61.80;;;;;;5034244;28;20026;-74
2021/09/02 07:56:10;;;;;;;7.95;5.20;;;21.20;63.40;;;;;;5032903;28;20022;-75
2021/09/02 07:58:36;;;;;;;6.85;5.03;;;21.00;64.20;;;;;;5050956;28;20430;-74
2021/09/02 08:01:02;;;;;;;8.82;4.88;;;20.80;64.80;;;;;;5053984;28;20025;-74
2021/09/02 08:03:28;;;;;;;7.68;4.95;;;20.60;65.30;;;;;;5052687;28;20033;-75
2021/09/02 08:05:54;;;;;;;5.70;4.18;;;20.80;65.50;;;;;;5052297;28;20068;-74
2021/09/02 08:08:20;;;;;;;6.53;5.03;;;21.20;64.90;;;;;;5052471;28;20021;-74
2021/09/02 08:10:48;;;;;;;7.90;4.68;;;21.40;63.90;;;;;;5053820;28;20099;-74
2021/09/02 08:13:13;;;;;;;8.38;4.70;;;21.30;62.90;;;;;;5052464;28;20032;-74
2021/09/02 08:15:40;;;;;;;8.32;4.47;;;21.10;62.20;;;;;;5052117;28;20036;-74
2021/09/02 08:18:07;;;;;;;8.07;5.43;;;20.80;62.40;;;;;;5053289;28;20025;-74
2021/09/02 08:20:33;;;;;;;6.88;4.10;;;20.60;63.10;;;;;;5052292;28;20025;-74
2021/09/02 08:22:59;;;;;;;21.52;6.13;;;20.40;63.70;;;;;;5052489;28;20028;-74
2021/09/02 08:25:26;;;;;;;7.55;4.05;;;20.20;64.10;;;;;;5051853;28;20033;-75
2021/09/02 08:27:52;;;;;;;8.13;4.72;;;20.20;64.50;;;;;;5053645;28;20459;-74
2021/09/02 08:30:22;;;;;;;11.35;4.63;;;20.10;65.20;;;;;;5052249;28;20111;-74
2021/09/02 08:32:48;;;;;;;8.07;4.43;;;20.30;65.40;;;;;;5052514;28;20033;-74
2021/09/02 08:35:22;;;;;;;6.68;4.80;;;20.40;65.40;;;;;;5053232;28;20107;-74
2021/09/02 08:37:53;;;;;;;6.38;4.15;;;20.60;65.00;;;;;;5053514;28;20021;-74
2021/09/02 08:40:21;;;;;;;6.30;4.43;;;20.60;65.00;;;;;;5052634;28;20471;-74
2021/09/02 08:42:48;;;;;;;7.05;4.20;;;20.80;64.90;;;;;;5052206;28;20475;-74
2021/09/02 08:45:14;;;;;;;8.70;3.92;;;21.10;64.20;;;;;;5052444;28;20063;-74
2021/09/02 08:47:46;;;;;;;6.72;3.72;;;21.50;63.00;;;;;;5053406;28;20025;-74
2021/09/02 08:50:16;;;;;;;6.05;3.40;;;21.60;61.40;;;;;;5053422;28;20459;-74
2021/09/02 08:52:41;;;;;;;6.55;3.75;;;21.60;60.50;;;;;;5053313;28;20044;-74
2021/09/02 08:55:08;;;;;;;7.88;4.20;;;21.30;59.90;;;;;;5051808;28;20033;-74
2021/09/02 08:57:34;;;;;;;7.40;3.95;;;21.00;59.60;;;;;;5052144;28;20056;-74
2021/09/02 08:59:59;;;;;;;19.48;5.20;;;20.70;59.90;;;;;;5053118;28;20029;-74
2021/09/02 09:02:27;;;;;;;7.18;3.80;;;20.40;60.50;;;;;;5052000;28;20128;-74
2021/09/02 09:05:11;;;;;;;8.98;4.32;;;20.10;61.30;;;;;;5053145;28;20056;-74
2021/09/02 09:07:39;;;;;;;8.05;4.05;;;20.00;62.20;;;;;;5051823;28;20033;-74
2021/09/02 09:10:23;;;;;;;8.77;4.63;;;19.90;62.30;;;;;;5051882;28;20083;-74
2021/09/02 09:13:01;;;;;;;7.85;3.97;;;19.80;62.70;;;;;;5051699;28;20037;-74
2021/09/02 09:15:33;;;;;;;10.77;4.72;;;19.70;62.80;;;;;;5053060;28;20064;-74
2021/09/02 09:18:24;;;;;;;8.25;4.50;;;19.70;63.10;;;;;;5053103;28;20025;-74
2021/09/02 09:21:14;;;;;;;8.43;4.55;;;19.80;63.40;;;;;;5053568;28;20025;-74
2021/09/02 09:24:04;;;;;;;10.02;4.32;;;19.90;63.60;;;;;;5050057;28;20098;-73
2021/09/02 09:26:32;;;;;;;9.93;4.38;;;19.90;63.90;;;;;;5052829;28;20025;-74
2021/09/02 09:29:00;;;;;;;7.20;3.95;;;19.90;63.70;;;;;;5054628;28;20429;-74
2021/09/02 09:31:36;;;;;;;6.57;3.20;;;19.80;63.40;;;;;;5055459;28;20037;-73
2021/09/02 09:34:06;;;;;;;11.88;3.75;;;19.70;62.60;;;;;;5055456;28;20025;-74
2021/09/02 09:36:35;;;;;;;7.43;3.35;;;19.50;62.70;;;;;;5056435;28;20025;-74
2021/09/02 09:39:13;;;;;;;7.13;3.03;;;19.30;62.70;;;;;;5056510;28;20033;-73
2021/09/02 09:41:46;;;;;;;7.85;3.45;;;19.20;62.90;;;;;;5056522;28;20108;-74
2021/09/02 09:44:25;;;;;;;7.03;3.10;;;19.20;62.70;;;;;;5055514;28;20520;-74
2021/09/02 09:47:17;;;;;;;7.57;2.75;;;19.30;62.30;;;;;;5056351;28;20399;-73
2021/09/02 09:49:53;;;;;;;6.90;3.15;;;19.50;62.20;;;;;;5052088;28;20075;-74
2021/09/02 09:52:28;;;;;;;6.90;2.80;;;19.70;62.00;;;;;;5053724;28;20041;-73
2021/09/02 09:55:09;;;;;;;7.45;3.10;;;19.90;61.20;;;;;;5054729;28;20079;-74
2021/09/02 09:57:37;;;;;;;8.98;2.60;;;20.00;60.20;;;;;;5056236;28;20037;-74
2021/09/02 10:00:10;;;;;;;5.50;2.28;;;20.10;58.50;;;;;;5054857;28;20036;-74
2021/09/02 10:02:38;;;;;;;6.97;2.72;;;20.20;57.50;;;;;;5055957;28;20032;-74
2021/09/02 10:05:06;;;;;;;9.45;2.28;;;20.40;56.30;;;;;;5056117;28;20077;-74
2021/09/02 10:07:34;;;;;;;5.05;2.20;;;20.50;55.80;;;;;;5055795;28;20048;-74
2021/09/02 10:10:00;;;;;;;7.50;2.50;;;20.70;55.10;;;;;;5055217;28;20025;-74
2021/09/02 10:12:26;;;;;;;13.55;3.47;;;20.80;54.90;;;;;;5054565;28;20032;-74
2021/09/02 10:14:53;;;;;;;6.78;2.88;;;21.10;54.80;;;;;;5056112;28;20159;-75
2021/09/02 10:17:19;;;;;;;7.88;2.47;;;21.60;53.90;;;;;;5056008;28;20463;-72
2021/09/02 10:19:47;;;;;;;5.05;2.75;;;22.10;53.40;;;;;;5040570;28;20083;-73
2021/09/02 10:22:14;;;;;;;7.03;2.80;;;22.70;52.70;;;;;;5034592;28;20503;-73
2021/09/02 10:24:42;;;;;;;5.70;2.30;;;23.50;52.20;;;;;;5035626;28;20022;-73
2021/09/02 10:27:22;;;;;;;5.65;2.45;;;24.00;49.10;;;;;;5035861;28;20451;-73
2021/09/02 10:29:50;;;;;;;9.25;2.15;;;23.50;46.60;;;;;;5035810;28;20029;-73
2021/09/02 10:32:22;;;;;;;7.18;3.83;;;22.90;46.70;;;;;;5034345;28;20038;-73
2021/09/02 10:34:48;;;;;;;7.03;2.13;;;22.50;46.90;;;;;;5034364;28;20116;-72
2021/09/02 10:37:36;;;;;;;4.63;2.10;;;22.20;47.20;;;;;;5035415;28;20076;-73
2021/09/02 10:40:15;;;;;;;7.68;2.20;;;22.60;47.50;;;;;;5034684;28;20025;-73
2021/09/02 10:42:45;;;;;;;6.35;2.40;;;23.40;46.90;;;;;;5035359;28;20478;-73
2021/09/02 10:45:29;;;;;;;5.40;2.05;;;23.80;46.30;;;;;;5034109;28;20021;-73
2021/09/02 10:48:05;;;;;;;5.10;1.73;;;23.40;44.90;;;;;;5037828;28;20425;-73
2021/09/02 10:50:43;;;;;;;4.47;1.90;;;23.00;44.40;;;;;;5043751;28;20044;-73
2021/09/02 10:53:12;;;;;;;8.05;2.00;;;22.90;44.60;;;;;;5034894;28;20112;-75
2021/09/02 10:55:53;;;;;;;7.05;1.98;;;23.50;44.20;;;;;;5035558;28;20026;-73
2021/09/02 10:58:38;;;;;;;4.00;1.85;;;24.30;43.40;;;;;;5033902;28;20032;-73
2021/09/02 11:01:22;;;;;;;5.10;1.88;;;25.10;43.30;;;;;;5033821;28;20030;-74
2021/09/02 11:03:49;;;;;;;5.50;2.00;;;26.00;42.50;;;;;;5034825;28;20037;-75
2021/09/02 11:06:15;;;;;;;4.95;1.75;;;26.60;40.80;;;;;;5034868;28;20280;-74
2021/09/02 11:08:41;;;;;;;4.32;1.95;;;26.50;39.40;;;;;;5035267;28;20017;-74
2021/09/02 11:11:17;;;;;;;4.57;1.90;;;25.80;39.60;;;;;;5034948;28;20452;-74
2021/09/02 11:13:44;;;;;;;5.53;1.73;;;24.90;40.80;;;;;;5032797;28;20033;-74
2021/09/02 11:16:15;;;;;;;4.75;1.80;;;24.60;42.00;;;;;;5035124;28;20057;-73
2021/09/02 11:18:45;;;;;;;12.43;2.10;;;25.00;41.70;;;;;;5033586;28;20037;-74
2021/09/02 11:21:16;;;;;;;8.20;2.13;;;25.60;40.20;;;;;;5034866;28;20033;-73
2021/09/02 11:23:46;;;;;;;4.15;1.88;;;25.50;39.00;;;;;;5033506;28;20132;-73
2021/09/02 11:26:35;;;;;;;5.65;2.00;;;24.80;39.20;;;;;;5034910;28;20406;-73
2021/09/02 11:29:01;;;;;;;4.15;1.67;;;23.80;39.80;;;;;;5033904;28;20112;-73
2021/09/02 11:31:28;;;;;;;7.93;2.20;;;23.00;41.00;;;;;;5033329;28;20030;-73
2021/09/02 11:33:54;;;;;;;7.63;2.80;;;22.50;42.80;;;;;;5034472;28;20017;-73
2021/09/02 11:36:21;;;;;;;6.75;2.05;;;22.20;43.20;;;;;;5034438;28;20017;-73
2021/09/02 11:38:48;;;;;;;6.97;1.80;;;22.30;43.80;;;;;;5033001;28;20030;-72
2021/09/02 11:41:23;;;;;;;3.92;1.60;;;22.50;43.40;;;;;;5034411;28;20056;-73
2021/09/02 11:43:51;;;;;;;15.20;2.03;;;22.40;43.10;;;;;;5041259;28;20475;-73
2021/09/02 11:46:18;;;;;;;5.03;1.73;;;22.10;42.60;;;;;;5052947;28;20040;-73
2021/09/02 11:48:48;;;;;;;5.47;1.85;;;21.90;42.80;;;;;;5053045;28;20021;-72
2021/09/02 11:51:22;;;;;;;5.07;1.52;;;21.70;42.70;;;;;;5052683;28;20379;-73
2021/09/02 11:53:49;;;;;;;7.80;1.73;;;21.50;43.00;;;;;;5053759;28;20116;-73
2021/09/02 11:56:18;;;;;;;4.75;1.90;;;21.40;43.80;;;;;;5052419;28;20035;-73
2021/09/02 11:58:44;;;;;;;7.10;1.77;;;21.40;44.00;;;;;;5052640;28;20056;-72
2021/09/02 12:01:10;;;;;;;4.97;1.73;;;21.20;44.10;;;;;;5052688;28;20059;-72
2021/09/02 12:03:39;;;;;;;4.60;1.88;;;21.00;44.90;;;;;;5053871;28;20025;-73
2021/09/02 12:06:06;;;;;;;5.10;1.92;;;21.00;45.50;;;;;;5052608;28;20403;-73
2021/09/02 12:08:32;;;;;;;6.85;2.10;;;21.10;45.80;;;;;;5053072;28;20033;-73
2021/09/02 12:10:58;;;;;;;6.35;1.90;;;20.90;46.10;;;;;;5052485;28;20059;-72
2021/09/02 12:13:33;;;;;;;6.80;2.30;;;20.60;47.00;;;;;;5051211;28;20069;-73
2021/09/02 12:16:05;;;;;;;7.75;2.15;;;20.30;48.00;;;;;;5053778;28;20029;-72
2021/09/02 12:18:32;;;;;;;4.90;2.15;;;20.00;48.60;;;;;;5053675;28;20025;-72
2021/09/02 12:21:09;;;;;;;5.63;2.03;;;19.90;49.00;;;;;;5052423;28;20068;-73
2021/09/02 12:23:47;;;;;;;10.73;2.00;;;19.60;48.70;;;;;;5052467;28;20048;-73
2021/09/02 12:26:13;;;;;;;6.03;2.20;;;19.40;49.20;;;;;;5052642;28;20029;-73
2021/09/02 12:28:43;;;;;;;4.53;2.35;;;19.20;49.50;;;;;;5051984;28;20063;-73
2021/09/02 12:31:25;;;;;;;6.60;2.42;;;19.10;50.00;;;;;;5052179;28;20493;-74
2021/09/02 12:34:02;;;;;;;6.03;1.80;;;19.50;50.60;;;;;;5054052;28;20037;-73
2021/09/02 12:36:30;;;;;;;6.00;1.90;;;19.60;49.60;;;;;;5052172;28;20037;-73
2021/09/02 12:39:16;;;;;;;4.70;2.20;;;19.50;49.30;;;;;;5052392;28;20124;-73
2021/09/02 12:41:44;;;;;;;6.00;2.17;;;19.30;49.40;;;;;;5052299;28;20051;-74
2021/09/02 12:44:12;;;;;;;6.03;2.60;;;19.20;50.10;;;;;;5050198;28;20048;-73
2021/09/02 12:46:52;;;;;;;6.32;2.20;;;19.00;50.60;;;;;;5053604;28;20025;-73
2021/09/02 12:49:19;;;;;;;4.18;1.92;;;18.90;50.60;;;;;;5052457;28;20025;-73